Time;durP1;ratioP1;P1;durP2;ratioP2;P2;SDS_P1;SDS_P2;PMS_P1;PMS_P2;Temp;Humidity;BMP_temperature;BMP_pressure;BME280_temperature;BME280_humidity;BME280_pressure;Samples;Min_cycle;Max_cycle;Signal;HPM_P1;HPM_P2
2023/06/15 03:54:44;;;;;;;15.77;14.97;;;15.30;99.90;;;;;;4984488;23;20486;-71
2023/06/15 03:57:11;;;;;;;15.83;14.50;;;15.40;99.90;;;;;;4917354;29;20489;-71
2023/06/15 03:59:38;;;;;;;16.80;15.33;;;15.60;99.90;;;;;;4917278;29;20923;-72
2023/06/15 04:02:05;;;;;;;15.83;14.93;;;15.70;99.90;;;;;;4917253;29;20457;-71
2023/06/15 04:04:32;;;;;;;15.60;14.70;;;15.90;99.90;;;;;;4917611;29;20469;-72
2023/06/15 04:06:59;;;;;;;16.30;15.20;;;16.10;99.90;;;;;;4917730;29;20545;-73
2023/06/15 04:09:26;;;;;;;16.87;15.87;;;16.40;99.90;;;;;;4917336;29;20825;-73
2023/06/15 04:11:54;;;;;;;15.53;14.40;;;16.50;99.90;;;;;;4917709;29;20605;-72
2023/06/15 04:14:20;;;;;;;16.70;15.60;;;16.80;99.90;;;;;;4917480;29;20517;-72
2023/06/15 04:16:47;;;;;;;15.93;15.13;;;17.00;99.90;;;;;;4915713;29;20494;-73
2023/06/15 04:19:14;;;;;;;16.20;15.20;;;17.10;99.90;;;;;;4918473;29;20465;-72
2023/06/15 04:21:40;;;;;;;16.03;14.93;;;17.30;99.90;;;;;;4918554;29;20450;-73
2023/06/15 04:24:07;;;;;;;15.40;14.50;;;17.80;99.90;;;;;;4916930;29;20458;-73
2023/06/15 04:26:35;;;;;;;15.00;14.00;;;18.50;99.90;;;;;;4916937;29;20505;-73
2023/06/15 04:29:04;;;;;;;17.30;15.87;;;19.20;99.30;;;;;;4916999;29;20879;-72
2023/06/15 04:31:33;;;;;;;15.10;14.20;;;19.80;97.70;;;;;;4916947;29;20462;-71
2023/06/15 04:34:00;;;;;;;16.63;15.43;;;20.60;95.70;;;;;;4916770;29;20949;-72
2023/06/15 04:36:31;;;;;;;16.97;15.77;;;21.10;93.60;;;;;;4916161;29;20936;-72
2023/06/15 04:38:57;;;;;;;19.37;18.13;;;21.30;92.60;;;;;;4917310;29;20470;-72
2023/06/15 04:41:27;;;;;;;17.17;16.10;;;21.10;92.40;;;;;;4916957;29;20455;-74
2023/06/15 04:43:54;;;;;;;24.20;16.93;;;21.00;92.70;;;;;;4916897;29;20450;-74
2023/06/15 04:46:23;;;;;;;21.00;15.77;;;21.10;92.40;;;;;;4916394;29;20463;-73
2023/06/15 04:48:49;;;;;;;16.93;15.80;;;20.90;92.60;;;;;;4916802;29;20451;-72
2023/06/15 04:51:16;;;;;;;17.20;15.87;;;21.00;92.80;;;;;;4916591;29;20454;-71
2023/06/15 04:53:44;;;;;;;17.40;16.00;;;21.00;92.40;;;;;;4916306;29;20561;-72
2023/06/15 04:56:10;;;;;;;17.70;16.37;;;21.10;92.30;;;;;;4918500;29;20446;-72
2023/06/15 04:58:37;;;;;;;17.57;16.10;;;21.00;92.40;;;;;;4917113;29;20486;-72
2023/06/15 05:01:04;;;;;;;18.20;16.83;;;21.30;92.00;;;;;;4916998;29;20454;-72
2023/06/15 05:03:33;;;;;;;17.40;16.23;;;21.60;91.40;;;;;;4916887;29;20462;-72
2023/06/15 05:06:00;;;;;;;17.03;15.93;;;21.80;90.70;;;;;;4916622;29;20481;-74
2023/06/15 05:08:26;;;;;;;17.27;16.23;;;22.00;90.40;;;;;;4916023;29;20509;-74
2023/06/15 05:10:53;;;;;;;17.33;16.30;;;22.30;89.40;;;;;;4915817;29;20553;-72
2023/06/15 05:13:20;;;;;;;16.77;15.67;;;22.70;87.50;;;;;;4915919;29;20465;-73
2023/06/15 05:15:46;;;;;;;16.30;15.50;;;23.00;85.30;;;;;;4915948;29;20450;-72
2023/06/15 05:18:13;;;;;;;18.10;16.90;;;23.20;83.70;;;;;;4916134;29;20988;-72
2023/06/15 05:20:41;;;;;;;18.80;17.50;;;23.30;83.80;;;;;;4915873;29;20458;-72
2023/06/15 05:23:08;;;;;;;18.17;17.07;;;23.40;82.40;;;;;;4915894;29;20505;-72
2023/06/15 05:25:35;;;;;;;19.30;18.00;;;23.40;82.50;;;;;;4915899;29;20553;-72
2023/06/15 05:28:01;;;;;;;18.80;17.70;;;23.70;81.30;;;;;;4915900;29;20506;-73
2023/06/15 05:30:28;;;;;;;16.87;15.70;;;23.90;79.80;;;;;;4915998;29;20623;-71
2023/06/15 05:32:55;;;;;;;17.83;16.37;;;24.00;80.10;;;;;;4915641;29;20462;-72
2023/06/15 05:35:22;;;;;;;17.13;15.97;;;24.20;79.10;;;;;;4915638;29;20476;-71
2023/06/15 05:37:50;;;;;;;19.07;17.50;;;24.50;78.20;;;;;;4915441;29;20493;-72
2023/06/15 05:40:17;;;;;;;17.33;16.17;;;24.70;76.40;;;;;;4915617;29;20522;-72
2023/06/15 05:42:44;;;;;;;17.77;16.57;;;24.70;75.60;;;;;;4915580;29;20490;-73
2023/06/15 05:45:11;;;;;;;22.17;19.03;;;25.30;74.60;;;;;;4915426;29;20553;-73
2023/06/15 05:47:38;;;;;;;17.67;16.67;;;25.70;72.60;;;;;;4915578;29;20450;-73
2023/06/15 05:50:05;;;;;;;18.60;17.20;;;25.70;71.10;;;;;;4915367;29;20459;-73
2023/06/15 05:52:32;;;;;;;17.87;16.80;;;25.90;70.60;;;;;;4915036;29;20489;-73
2023/06/15 05:55:00;;;;;;;16.87;15.77;;;25.80;69.80;;;;;;4915351;29;20469;-73
2023/06/15 05:57:26;;;;;;;15.47;14.77;;;26.00;68.10;;;;;;4915216;29;20482;-73
2023/06/15 05:59:53;;;;;;;15.77;15.07;;;26.20;67.30;;;;;;4914830;29;20855;-73
2023/06/15 06:02:20;;;;;;;16.83;15.73;;;26.30;67.10;;;;;;4915352;29;20859;-73
2023/06/15 06:04:47;;;;;;;17.47;16.37;;;26.60;65.30;;;;;;4915341;29;20840;-73
2023/06/15 06:07:14;;;;;;;15.97;15.07;;;26.80;65.10;;;;;;4914854;29;20936;-72
2023/06/15 06:09:41;;;;;;;16.10;15.30;;;27.00;63.90;;;;;;4909739;29;20467;-71
2023/06/15 06:12:10;;;;;;;16.10;15.30;;;27.30;63.10;;;;;;4915205;29;20454;-74
2023/06/15 06:14:36;;;;;;;16.17;15.27;;;27.50;63.20;;;;;;4914933;29;20518;-73
2023/06/15 06:17:03;;;;;;;16.17;15.30;;;27.10;61.80;;;;;;4913076;29;20529;-75
2023/06/15 06:19:30;;;;;;;16.67;15.93;;;26.70;63.60;;;;;;4913999;29;20467;-76
2023/06/15 06:21:56;;;;;;;15.10;14.40;;;26.70;63.40;;;;;;4914463;29;20895;-75
2023/06/15 06:24:23;;;;;;;16.63;15.67;;;26.40;63.50;;;;;;4912482;29;20454;-74
2023/06/15 06:26:50;;;;;;;15.50;14.70;;;25.90;64.60;;;;;;4914037;29;20458;-75
2023/06/15 06:29:18;;;;;;;16.03;15.00;;;25.70;65.70;;;;;;4914667;29;20446;-74
2023/06/15 06:31:44;;;;;;;14.83;14.03;;;25.70;65.50;;;;;;4914777;29;20949;-75
2023/06/15 06:34:11;;;;;;;15.00;14.40;;;26.40;64.30;;;;;;4914495;29;20875;-75
2023/06/15 06:36:38;;;;;;;15.73;15.03;;;27.00;62.60;;;;;;4914195;29;20537;-75
2023/06/15 06:39:05;;;;;;;16.40;15.70;;;27.20;62.40;;;;;;4914214;29;20497;-75
2023/06/15 06:41:32;;;;;;;15.33;14.53;;;27.50;61.80;;;;;;4914257;29;20462;-75
2023/06/15 06:43:58;;;;;;;16.60;15.80;;;27.90;60.40;;;;;;4914306;29;20968;-75
2023/06/15 06:46:27;;;;;;;16.67;15.87;;;27.90;60.20;;;;;;4914225;29;20876;-75
2023/06/15 06:48:54;;;;;;;16.17;15.50;;;28.60;58.50;;;;;;4914501;29;20450;-75
2023/06/15 06:51:20;;;;;;;16.37;15.53;;;28.30;58.20;;;;;;4914094;29;20509;-75
2023/06/15 06:53:47;;;;;;;17.40;16.27;;;27.90;58.40;;;;;;4914582;29;20541;-75
2023/06/15 06:56:14;;;;;;;17.13;16.13;;;27.60;59.50;;;;;;4914465;29;20469;-75
2023/06/15 06:58:41;;;;;;;17.07;16.13;;;27.50;59.60;;;;;;4914314;29;20529;-75
2023/06/15 07:01:08;;;;;;;15.10;14.50;;;27.70;58.80;;;;;;4913525;29;20462;-75
2023/06/15 07:03:38;;;;;;;15.90;15.00;;;28.10;58.60;;;;;;4913828;29;20957;-75
2023/06/15 07:06:05;;;;;;;16.40;15.70;;;28.00;58.80;;;;;;4913864;29;20458;-75
2023/06/15 07:08:31;;;;;;;17.80;16.63;;;28.20;58.20;;;;;;4913846;29;20537;-75
2023/06/15 07:10:58;;;;;;;17.10;16.20;;;28.30;57.60;;;;;;4913851;29;20529;-75
2023/06/15 07:13:25;;;;;;;16.30;15.60;;;28.00;57.90;;;;;;4914065;29;20526;-75
2023/06/15 07:15:54;;;;;;;15.90;15.27;;;27.80;58.40;;;;;;4914058;29;20728;-75
2023/06/15 07:18:21;;;;;;;16.60;15.90;;;27.50;58.30;;;;;;4913820;29;21038;-75
2023/06/15 07:20:53;;;;;;;17.47;16.57;;;27.50;58.20;;;;;;4914054;29;20454;-75
2023/06/15 07:23:21;;;;;;;16.27;15.47;;;27.60;58.70;;;;;;4914201;29;20765;-75
2023/06/15 07:25:48;;;;;;;17.67;16.87;;;28.50;57.30;;;;;;4900645;29;20574;-75
2023/06/15 07:28:14;;;;;;;17.07;16.37;;;29.20;56.40;;;;;;4895475;29;20459;-75
2023/06/15 07:30:41;;;;;;;16.77;16.07;;;29.50;55.50;;;;;;4902437;29;20474;-74
2023/06/15 07:33:08;;;;;;;17.37;16.57;;;29.10;56.00;;;;;;4913776;29;20459;-74
2023/06/15 07:35:34;;;;;;;17.90;17.10;;;29.00;55.20;;;;;;4913956;29;20502;-75
2023/06/15 07:38:02;;;;;;;17.90;17.10;;;29.30;54.80;;;;;;4914079;29;20490;-75
2023/06/15 07:40:29;;;;;;;17.53;16.53;;;29.80;55.00;;;;;;4895396;29;20854;-74
2023/06/15 07:42:56;;;;;;;17.70;17.00;;;30.00;54.30;;;;;;4895147;29;20451;-74
2023/06/15 07:45:22;;;;;;;18.70;17.90;;;30.30;53.90;;;;;;4895108;29;20459;-73
2023/06/15 07:47:49;;;;;;;19.80;19.00;;;31.00;53.00;;;;;;4904710;29;20522;-74
2023/06/15 07:50:16;;;;;;;18.10;17.20;;;31.00;51.80;;;;;;4913788;29;20458;-74
2023/06/15 07:52:42;;;;;;;17.30;16.60;;;30.90;51.30;;;;;;4913682;29;20475;-73
2023/06/15 07:55:11;;;;;;;17.60;16.80;;;30.90;51.90;;;;;;4913606;29;20458;-76
2023/06/15 07:57:37;;;;;;;18.43;17.57;;;31.00;51.20;;;;;;4913609;29;20529;-75
2023/06/15 08:00:06;;;;;;;19.30;18.40;;;31.20;50.50;;;;;;4913825;29;20479;-74
2023/06/15 08:02:33;;;;;;;18.27;17.47;;;31.00;50.70;;;;;;4913911;29;20462;-75
2023/06/15 08:05:00;;;;;;;18.70;17.90;;;31.00;50.80;;;;;;4912755;29;20944;-74
2023/06/15 08:07:28;;;;;;;19.53;18.20;;;31.10;50.70;;;;;;4913228;29;20486;-75
2023/06/15 08:09:55;;;;;;;19.00;18.00;;;30.70;50.70;;;;;;4913688;29;21020;-75
2023/06/15 08:12:23;;;;;;;18.13;17.33;;;30.80;51.30;;;;;;4913673;29;20465;-75
2023/06/15 08:14:49;;;;;;;19.10;18.30;;;30.80;51.10;;;;;;4913426;29;20470;-74
2023/06/15 08:17:16;;;;;;;19.90;18.90;;;30.80;50.90;;;;;;4913798;29;20454;-75
2023/06/15 08:19:43;;;;;;;18.87;17.87;;;30.10;50.30;;;;;;4913655;29;20592;-74
2023/06/15 08:22:10;;;;;;;17.50;16.70;;;30.30;51.00;;;;;;4914953;29;20461;-75
2023/06/15 08:24:36;;;;;;;17.73;17.03;;;30.10;51.20;;;;;;4916832;29;20494;-75
2023/06/15 08:27:05;;;;;;;18.90;17.90;;;29.90;50.80;;;;;;4917597;29;20461;-75
2023/06/15 08:29:33;;;;;;;18.80;17.90;;;30.20;51.30;;;;;;4924307;29;20454;-75
2023/06/15 08:32:00;;;;;;;17.43;16.63;;;30.20;51.90;;;;;;4919184;29;20469;-75
2023/06/15 08:34:26;;;;;;;18.43;17.63;;;31.00;51.40;;;;;;4917358;29;20469;-75
2023/06/15 08:36:53;;;;;;;17.60;16.80;;;31.70;48.90;;;;;;4917344;29;20458;-74
2023/06/15 08:39:21;;;;;;;18.83;17.77;;;31.60;48.90;;;;;;4917258;29;20498;-75
2023/06/15 08:41:48;;;;;;;18.43;17.57;;;31.30;49.30;;;;;;4917027;29;20494;-75
2023/06/15 08:44:18;;;;;;;19.27;18.17;;;31.30;49.60;;;;;;4916962;29;20458;-74
2023/06/15 08:46:46;;;;;;;18.33;17.53;;;30.90;49.90;;;;;;4916824;29;20474;-75
2023/06/15 08:49:14;;;;;;;18.90;18.10;;;31.20;49.20;;;;;;4916468;29;20466;-75
2023/06/15 08:51:44;;;;;;;19.10;18.20;;;31.60;49.40;;;;;;4916207;29;20490;-75
2023/06/15 08:54:12;;;;;;;19.17;18.17;;;31.20;48.80;;;;;;4916124;29;20482;-74
2023/06/15 08:56:38;;;;;;;18.30;17.50;;;31.00;49.60;;;;;;4916337;29;20474;-73
2023/06/15 08:59:07;;;;;;;18.63;17.77;;;31.00;49.80;;;;;;4915921;29;20490;-74
2023/06/15 09:01:39;;;;;;;18.53;17.60;;;30.90;49.50;;;;;;4915982;29;20453;-75
2023/06/15 09:04:08;;;;;;;18.60;17.90;;;31.40;49.30;;;;;;4915888;29;21017;-75
2023/06/15 09:06:35;;;;;;;19.67;18.30;;;31.80;47.70;;;;;;4914361;29;20455;-75
2023/06/15 09:09:03;;;;;;;18.97;18.07;;;31.90;48.00;;;;;;4915985;29;20454;-73
2023/06/15 09:11:30;;;;;;;17.73;17.03;;;31.90;47.00;;;;;;4915960;29;20466;-73
2023/06/15 09:13:56;;;;;;;17.67;16.87;;;32.60;46.70;;;;;;4916162;29;20466;-73
2023/06/15 09:16:23;;;;;;;18.43;17.53;;;32.60;45.40;;;;;;4915952;29;20454;-73
2023/06/15 09:18:51;;;;;;;18.47;17.47;;;32.90;44.90;;;;;;4915995;29;20490;-74
2023/06/15 09:21:22;;;;;;;19.20;18.20;;;33.30;45.00;;;;;;4915836;29;20458;-74
2023/06/15 09:23:48;;;;;;;18.33;17.53;;;33.70;44.80;;;;;;4915859;29;20466;-75
2023/06/15 09:26:23;;;;;;;19.33;18.53;;;34.30;43.00;;;;;;4915713;29;20477;-74
2023/06/15 09:28:52;;;;;;;18.70;17.90;;;34.40;43.30;;;;;;4915955;29;20865;-74
2023/06/15 09:31:31;;;;;;;17.87;17.07;;;33.60;43.30;;;;;;4915718;29;20451;-74
2023/06/15 09:34:03;;;;;;;17.30;16.60;;;32.80;43.80;;;;;;4915598;29;20454;-74
2023/06/15 09:36:36;;;;;;;18.63;17.70;;;33.00;43.40;;;;;;4915809;29;20944;-74
2023/06/15 09:39:05;;;;;;;18.73;17.83;;;33.90;43.20;;;;;;4915701;29;20517;-74
2023/06/15 09:41:32;;;;;;;17.53;16.83;;;33.60;43.80;;;;;;4915686;29;20461;-75
2023/06/15 09:44:02;;;;;;;17.57;16.80;;;34.00;43.60;;;;;;4915773;29;20454;-75
2023/06/15 09:46:29;;;;;;;17.97;17.10;;;33.70;43.70;;;;;;4915725;29;20546;-75
2023/06/15 09:48:56;;;;;;;18.77;17.77;;;33.70;42.20;;;;;;4915373;29;20458;-75
2023/06/15 09:51:28;;;;;;;18.00;17.30;;;34.00;42.30;;;;;;4914713;29;20478;-75
2023/06/15 09:53:58;;;;;;;17.77;16.97;;;34.30;41.30;;;;;;4914953;29;20573;-75
2023/06/15 09:56:26;;;;;;;19.83;18.73;;;33.30;41.70;;;;;;4915201;29;20537;-74
2023/06/15 09:58:53;;;;;;;17.17;16.47;;;33.00;42.00;;;;;;4915104;29;20573;-74
2023/06/15 10:01:24;;;;;;;17.00;16.30;;;32.80;42.00;;;;;;4915101;29;20469;-74
2023/06/15 10:03:53;;;;;;;17.83;17.03;;;33.20;42.20;;;;;;4915022;29;20462;-74
2023/06/15 10:06:22;;;;;;;18.63;17.70;;;33.50;40.40;;;;;;4914729;29;20881;-75
2023/06/15 10:08:54;;;;;;;16.63;15.93;;;33.70;41.00;;;;;;4914574;29;20478;-75
2023/06/15 10:11:23;;;;;;;16.93;16.13;;;32.60;41.30;;;;;;4914811;29;21019;-74
2023/06/15 10:13:52;;;;;;;17.50;16.80;;;32.30;42.10;;;;;;4914767;29;20462;-74
2023/06/15 10:16:21;;;;;;;17.17;16.37;;;31.90;41.70;;;;;;4914702;29;20892;-74
2023/06/15 10:18:53;;;;;;;16.63;15.93;;;30.40;43.00;;;;;;4914678;29;20589;-74
2023/06/15 10:21:24;;;;;;;16.27;15.67;;;30.70;43.30;;;;;;4914787;29;20458;-74
2023/06/15 10:23:54;;;;;;;16.80;16.10;;;31.10;41.60;;;;;;4914766;29;20504;-74
2023/06/15 10:26:22;;;;;;;16.87;16.03;;;31.70;40.70;;;;;;4914446;29;20870;-74
2023/06/15 10:28:53;;;;;;;17.23;16.53;;;32.90;39.70;;;;;;4914625;29;20454;-74
2023/06/15 10:31:30;;;;;;;16.90;16.00;;;34.00;37.90;;;;;;4914393;29;20556;-73
2023/06/15 10:34:03;;;;;;;17.43;16.83;;;34.40;37.70;;;;;;4914551;29;20891;-74
2023/06/15 10:36:31;;;;;;;18.93;18.13;;;35.60;36.70;;;;;;4914245;29;20940;-74
2023/06/15 10:39:05;;;;;;;18.20;17.50;;;36.40;34.90;;;;;;4914318;29;21329;-74
2023/06/15 10:41:36;;;;;;;17.60;16.90;;;36.90;34.30;;;;;;4914538;29;20487;-74
2023/06/15 10:44:05;;;;;;;18.10;17.20;;;36.90;33.80;;;;;;4914088;29;20521;-74
2023/06/15 10:46:33;;;;;;;17.83;16.87;;;36.80;33.90;;;;;;4913889;29;20450;-74
2023/06/15 10:49:04;;;;;;;18.90;18.20;;;36.30;34.00;;;;;;4914354;29;20466;-74
2023/06/15 10:51:33;;;;;;;18.63;17.73;;;36.40;33.60;;;;;;4914231;29;20494;-74
2023/06/15 10:54:03;;;;;;;18.90;18.10;;;37.00;33.20;;;;;;4913915;29;21000;-74
2023/06/15 10:56:29;;;;;;;17.57;16.77;;;35.10;35.70;;;;;;4914525;29;20465;-75
2023/06/15 10:58:59;;;;;;;16.87;16.17;;;33.90;37.90;;;;;;4914465;29;20500;-75
2023/06/15 11:01:27;;;;;;;18.30;17.40;;;32.70;39.20;;;;;;4914178;29;20462;-75
2023/06/15 11:03:55;;;;;;;17.57;16.87;;;31.80;40.20;;;;;;4914501;29;20565;-75
2023/06/15 11:06:22;;;;;;;17.33;16.63;;;30.50;41.70;;;;;;4914431;29;20470;-74
2023/06/15 11:08:51;;;;;;;16.30;15.70;;;30.10;43.10;;;;;;4914441;29;20482;-76
2023/06/15 11:11:20;;;;;;;16.40;15.70;;;29.90;42.80;;;;;;4914317;29;20498;-74
2023/06/15 11:14:03;;;;;;;16.67;15.87;;;29.90;43.30;;;;;;4914481;29;20988;-74
2023/06/15 11:16:31;;;;;;;16.57;15.60;;;30.40;43.70;;;;;;4912618;29;20478;-74
2023/06/15 11:19:23;;;;;;;17.47;16.50;;;30.80;42.60;;;;;;4914243;29;20490;-73
2023/06/15 11:21:59;;;;;;;17.13;16.27;;;30.60;42.70;;;;;;4908362;29;20462;-73
2023/06/15 11:24:26;;;;;;;17.53;16.63;;;31.20;40.80;;;;;;4914187;29;20528;-74
2023/06/15 11:26:54;;;;;;;18.20;16.93;;;31.40;41.60;;;;;;4913649;29;20450;-74
2023/06/15 11:29:25;;;;;;;18.07;17.27;;;31.90;40.40;;;;;;4913525;29;20454;-74
2023/06/15 11:31:52;;;;;;;17.30;16.60;;;32.30;40.00;;;;;;4913555;29;20800;-73
2023/06/15 11:34:19;;;;;;;14.90;14.30;;;32.60;38.60;;;;;;4912953;29;20951;-73
2023/06/15 11:36:47;;;;;;;16.50;15.80;;;32.30;38.40;;;;;;4913129;29;20968;-73
2023/06/15 11:39:21;;;;;;;15.53;14.50;;;31.70;38.70;;;;;;4913201;29;20907;-75
2023/06/15 11:41:49;;;;;;;15.60;14.90;;;31.10;39.80;;;;;;4913426;29;20455;-74
2023/06/15 11:44:16;;;;;;;15.70;15.00;;;30.80;39.90;;;;;;4914191;29;20518;-74
2023/06/15 11:46:51;;;;;;;15.70;15.00;;;31.20;39.70;;;;;;4914092;29;20457;-74
2023/06/15 11:49:18;;;;;;;16.37;15.67;;;31.50;39.00;;;;;;4913907;29;20454;-74
2023/06/15 11:51:47;;;;;;;16.63;15.93;;;31.80;38.60;;;;;;4913838;29;20478;-76
2023/06/15 11:54:14;;;;;;;16.50;15.90;;;31.90;38.40;;;;;;4913678;29;20501;-75
2023/06/15 11:56:44;;;;;;;15.70;15.10;;;31.40;38.50;;;;;;4914150;29;20451;-73
2023/06/15 11:59:13;;;;;;;15.80;15.20;;;30.50;39.70;;;;;;4917441;29;20589;-75
2023/06/15 12:01:40;;;;;;;15.77;15.17;;;30.10;40.40;;;;;;4917457;29;20454;-74
2023/06/15 12:04:12;;;;;;;16.83;16.03;;;30.80;39.60;;;;;;4917359;29;20637;-75
2023/06/15 12:06:40;;;;;;;16.53;15.80;;;32.20;38.40;;;;;;4916739;29;20458;-74
2023/06/15 12:09:07;;;;;;;17.30;16.40;;;33.20;36.60;;;;;;4916827;29;20902;-75
2023/06/15 12:11:34;;;;;;;18.37;17.33;;;33.50;36.10;;;;;;4916865;29;20462;-75
2023/06/15 12:14:02;;;;;;;16.20;15.40;;;33.10;37.00;;;;;;4916719;29;20458;-74
2023/06/15 12:16:30;;;;;;;17.07;16.23;;;31.90;38.50;;;;;;4916978;29;20497;-73
2023/06/15 12:18:58;;;;;;;16.90;16.17;;;30.60;40.30;;;;;;4916956;29;20541;-75
2023/06/15 12:21:29;;;;;;;17.13;16.43;;;31.50;39.70;;;;;;4916500;29;20458;-73
2023/06/15 12:23:56;;;;;;;16.53;15.73;;;32.20;38.90;;;;;;4915850;29;20466;-74
2023/06/15 12:26:22;;;;;;;17.07;15.93;;;32.60;37.90;;;;;;4916470;29;20454;-74
2023/06/15 12:28:49;;;;;;;15.83;15.13;;;33.50;37.00;;;;;;4916238;29;20821;-74
2023/06/15 12:31:17;;;;;;;16.20;15.40;;;33.70;36.20;;;;;;4916295;29;20544;-73
2023/06/15 12:33:44;;;;;;;16.23;15.47;;;33.60;35.80;;;;;;4916307;29;20458;-74
2023/06/15 12:36:12;;;;;;;17.67;16.97;;;33.70;35.70;;;;;;4916130;29;20458;-74
2023/06/15 12:38:42;;;;;;;17.03;16.10;;;33.10;36.50;;;;;;4916423;29;20510;-73
2023/06/15 12:41:13;;;;;;;15.97;15.37;;;33.60;36.00;;;;;;4915728;29;20494;-73
2023/06/15 12:43:40;;;;;;;16.63;15.93;;;34.40;34.30;;;;;;4916210;29;20541;-73
2023/06/15 12:46:07;;;;;;;17.50;16.80;;;34.60;34.70;;;;;;4915867;29;20461;-74
2023/06/15 12:48:34;;;;;;;17.33;16.50;;;34.00;34.50;;;;;;4916166;29;20548;-74
2023/06/15 12:51:01;;;;;;;16.93;15.40;;;32.90;35.80;;;;;;4916511;29;20521;-75
2023/06/15 12:53:27;;;;;;;16.37;15.60;;;31.60;36.90;;;;;;4916395;29;20509;-76
2023/06/15 12:55:56;;;;;;;16.47;15.77;;;31.40;38.30;;;;;;4915955;29;20462;-75
2023/06/15 12:58:23;;;;;;;16.03;15.43;;;32.30;37.40;;;;;;4916397;29;20470;-75
2023/06/15 13:00:50;;;;;;;16.73;15.93;;;33.60;36.20;;;;;;4916403;29;20498;-75
2023/06/15 13:03:17;;;;;;;16.20;15.30;;;34.20;35.20;;;;;;4916278;29;20544;-75
2023/06/15 13:05:43;;;;;;;16.70;16.10;;;33.70;34.50;;;;;;4915864;29;20458;-74
2023/06/15 13:08:11;;;;;;;17.30;16.53;;;32.80;34.20;;;;;;4914974;29;20633;-74
2023/06/15 13:10:38;;;;;;;17.20;16.20;;;33.20;33.80;;;;;;4915169;29;20454;-74
2023/06/15 13:13:06;;;;;;;17.57;16.47;;;32.50;34.30;;;;;;4915858;29;20473;-75
2023/06/15 13:15:33;;;;;;;17.00;16.20;;;32.60;35.30;;;;;;4915602;29;20455;-74
2023/06/15 13:18:00;;;;;;;17.80;16.77;;;33.70;34.90;;;;;;4915344;29;20470;-74
2023/06/15 13:20:27;;;;;;;17.30;16.47;;;33.50;34.30;;;;;;4915146;29;20557;-74
2023/06/15 13:22:53;;;;;;;16.60;15.83;;;33.10;35.20;;;;;;4913634;29;20466;-75
2023/06/15 13:25:20;;;;;;;16.50;15.70;;;32.80;36.50;;;;;;4915071;29;20492;-75
2023/06/15 13:27:47;;;;;;;16.97;16.27;;;32.30;36.90;;;;;;4914895;29;20462;-75
2023/06/15 13:30:16;;;;;;;15.10;14.50;;;31.00;38.20;;;;;;4915103;29;20450;-74
2023/06/15 13:32:45;;;;;;;15.00;14.40;;;30.50;39.60;;;;;;4915478;29;20462;-75
2023/06/15 13:35:13;;;;;;;16.57;15.87;;;29.80;40.00;;;;;;4915657;29;20482;-75
2023/06/15 13:37:41;;;;;;;14.83;14.23;;;30.00;40.60;;;;;;4923305;29;20533;-74
2023/06/15 13:40:09;;;;;;;16.10;15.33;;;30.20;39.80;;;;;;4915697;29;20486;-75
2023/06/15 13:42:37;;;;;;;14.70;14.07;;;30.30;39.80;;;;;;4915215;29;21060;-75
2023/06/15 13:45:07;;;;;;;15.77;15.10;;;31.00;39.20;;;;;;4915121;29;20513;-74
2023/06/15 13:47:36;;;;;;;16.43;15.73;;;31.40;38.40;;;;;;4913760;29;20551;-75
2023/06/15 13:50:03;;;;;;;15.23;14.63;;;31.40;38.10;;;;;;4915054;29;20581;-74
2023/06/15 13:52:30;;;;;;;16.20;15.50;;;31.60;38.40;;;;;;4915295;29;20486;-73
2023/06/15 13:54:57;;;;;;;15.67;15.00;;;32.00;37.30;;;;;;4914966;29;20831;-75
2023/06/15 13:57:24;;;;;;;15.50;14.70;;;31.40;37.00;;;;;;4914918;29;20454;-75
2023/06/15 13:59:51;;;;;;;15.10;14.50;;;30.10;38.60;;;;;;4914836;29;20767;-75
2023/06/15 14:02:18;;;;;;;15.30;14.67;;;30.10;38.70;;;;;;4912794;29;20838;-76
2023/06/15 14:04:46;;;;;;;15.83;15.13;;;30.30;39.40;;;;;;4914800;29;20481;-76
2023/06/15 14:07:13;;;;;;;15.03;14.40;;;31.00;38.30;;;;;;4914867;29;20819;-75
2023/06/15 14:09:40;;;;;;;15.70;15.10;;;31.10;37.50;;;;;;4914545;29;20454;-76
2023/06/15 14:12:08;;;;;;;15.20;14.60;;;30.70;37.80;;;;;;4914272;29;20462;-76
2023/06/15 14:14:35;;;;;;;14.63;14.07;;;30.80;38.30;;;;;;4913806;29;20450;-75
2023/06/15 14:17:03;;;;;;;14.87;14.27;;;30.50;38.60;;;;;;4913912;29;20639;-76
2023/06/15 14:19:30;;;;;;;14.83;14.33;;;30.80;39.40;;;;;;4913335;29;20483;-75
2023/06/15 14:21:58;;;;;;;16.07;15.37;;;31.20;39.10;;;;;;4913947;29;20472;-75
2023/06/15 14:24:25;;;;;;;16.00;15.10;;;31.60;38.20;;;;;;4911629;29;20486;-74
2023/06/15 14:26:52;;;;;;;15.63;15.03;;;31.90;37.50;;;;;;4913621;29;20509;-76
2023/06/15 14:29:19;;;;;;;16.20;15.40;;;32.00;37.60;;;;;;4913721;29;20534;-75
2023/06/15 14:31:49;;;;;;;15.57;14.97;;;32.20;37.30;;;;;;4913810;29;20485;-75
2023/06/15 14:34:17;;;;;;;15.23;14.60;;;32.20;36.90;;;;;;4913947;29;20490;-76
2023/06/15 14:36:45;;;;;;;15.83;15.23;;;31.90;37.10;;;;;;4911493;29;20454;-76
2023/06/15 14:39:14;;;;;;;14.00;13.50;;;30.80;37.60;;;;;;4913982;29;20805;-75
2023/06/15 14:41:41;;;;;;;15.03;14.43;;;30.70;38.00;;;;;;4913913;29;20488;-75
2023/06/15 14:44:10;;;;;;;15.13;14.50;;;30.50;38.20;;;;;;4914012;29;20612;-76
2023/06/15 14:46:37;;;;;;;15.40;14.70;;;29.50;38.40;;;;;;4914080;29;20785;-75
2023/06/15 14:49:04;;;;;;;16.20;15.50;;;29.60;39.10;;;;;;4911510;29;20446;-75
2023/06/15 14:51:32;;;;;;;15.90;15.30;;;29.30;39.30;;;;;;4913720;29;20881;-75
2023/06/15 14:53:58;;;;;;;15.00;14.40;;;29.00;40.30;;;;;;4913855;29;20490;-76
2023/06/15 14:56:28;;;;;;;15.43;14.83;;;28.90;40.40;;;;;;4914066;29;20462;-75
2023/06/15 14:58:54;;;;;;;15.37;14.73;;;29.30;40.70;;;;;;4914017;29;20458;-75
2023/06/15 15:01:23;;;;;;;16.10;15.33;;;29.20;39.60;;;;;;4914032;29;20545;-75
2023/06/15 15:03:50;;;;;;;15.97;15.20;;;29.00;39.30;;;;;;4913826;29;20462;-75
2023/06/15 15:06:17;;;;;;;15.57;14.87;;;29.00;39.60;;;;;;4913942;29;20461;-75
2023/06/15 15:08:44;;;;;;;15.10;14.40;;;29.30;39.20;;;;;;4914108;29;20461;-75
2023/06/15 15:11:10;;;;;;;15.63;14.53;;;29.60;38.70;;;;;;4913742;29;20961;-75
2023/06/15 15:13:38;;;;;;;14.90;14.10;;;29.50;38.20;;;;;;4913752;29;20948;-75
2023/06/15 15:16:07;;;;;;;14.30;13.70;;;28.70;38.20;;;;;;4913807;29;20458;-74
2023/06/15 15:18:34;;;;;;;14.60;14.10;;;28.20;39.20;;;;;;4914284;29;20545;-75
2023/06/15 15:21:00;;;;;;;14.93;14.33;;;27.90;39.50;;;;;;4913760;29;20981;-76
2023/06/15 15:23:27;;;;;;;14.37;13.20;;;27.90;39.60;;;;;;4913822;29;20506;-75
2023/06/15 15:25:56;;;;;;;14.57;13.87;;;27.70;39.40;;;;;;4913898;29;20530;-76
2023/06/15 15:28:23;;;;;;;14.40;13.80;;;27.50;39.60;;;;;;4913686;29;20490;-75
2023/06/15 15:30:51;;;;;;;13.30;12.70;;;27.10;38.90;;;;;;4914500;29;20562;-74
2023/06/15 15:33:17;;;;;;;13.23;12.73;;;26.90;39.00;;;;;;4917737;29;20521;-74
2023/06/15 15:35:44;;;;;;;14.80;14.20;;;26.80;39.30;;;;;;4917763;29;20494;-76
2023/06/15 15:38:11;;;;;;;13.60;13.00;;;26.60;39.30;;;;;;4917831;29;20458;-76
2023/06/15 15:40:38;;;;;;;15.00;14.40;;;26.70;39.50;;;;;;4917713;29;20526;-75
2023/06/15 15:43:05;;;;;;;14.30;13.73;;;26.70;39.50;;;;;;4917532;29;20920;-75
2023/06/15 15:45:32;;;;;;;14.27;13.47;;;26.70;39.40;;;;;;4917323;29;20823;-75
2023/06/15 15:48:00;;;;;;;15.13;14.33;;;26.80;39.30;;;;;;4917180;29;20459;-76
2023/06/15 15:50:27;;;;;;;13.90;13.30;;;26.80;39.00;;;;;;4917093;29;20509;-76
2023/06/15 15:52:53;;;;;;;14.23;13.47;;;26.90;39.20;;;;;;4917131;29;20497;-76
2023/06/15 15:55:20;;;;;;;14.10;13.40;;;26.90;40.10;;;;;;4917364;29;20447;-76
2023/06/15 15:57:47;;;;;;;14.20;13.63;;;26.90;40.20;;;;;;4917140;29;20456;-76
2023/06/15 16:00:15;;;;;;;13.70;13.20;;;26.90;40.10;;;;;;4916465;29;20541;-76
2023/06/15 16:02:41;;;;;;;16.00;15.20;;;26.80;39.70;;;;;;4916614;29;20532;-75
2023/06/15 16:05:10;;;;;;;14.17;13.57;;;26.80;39.70;;;;;;4913799;29;20948;-75
2023/06/15 16:07:38;;;;;;;13.90;13.30;;;26.70;39.30;;;;;;4916477;29;20510;-75
2023/06/15 16:10:06;;;;;;;13.93;13.43;;;26.60;39.50;;;;;;4916802;29;20458;-74
2023/06/15 16:12:32;;;;;;;14.40;13.87;;;26.50;38.90;;;;;;4917126;29;20450;-76
2023/06/15 16:14:59;;;;;;;14.23;13.73;;;26.50;39.50;;;;;;4916754;29;20450;-75
2023/06/15 16:17:26;;;;;;;13.87;13.30;;;26.40;39.10;;;;;;4916632;29;20450;-75
2023/06/15 16:19:52;;;;;;;13.93;13.43;;;26.30;39.30;;;;;;4916487;29;20887;-75
2023/06/15 16:22:20;;;;;;;14.40;13.80;;;26.40;39.10;;;;;;4915963;29;20577;-76
2023/06/15 16:24:47;;;;;;;15.37;14.30;;;26.40;39.00;;;;;;4916651;29;20461;-77